Time;durP1;ratioP1;P1;durP2;ratioP2;P2;SDS_P1;SDS_P2;PMS_P1;PMS_P2;Temp;Humidity;BMP_temperature;BMP_pressure;BME280_temperature;BME280_humidity;BME280_pressure;Samples;Min_cycle;Max_cycle;Signal;HPM_P1;HPM_P2
2022/04/21 00:02:20;;;;;;;13.70;8.10;;;;;;;9.90;85.40;101479.56;5079874;28;20046;-58
2022/04/21 00:04:46;;;;;;;12.10;7.95;;;;;;;9.86;85.24;101480.59;5080429;28;20036;-59
2022/04/21 00:07:11;;;;;;;12.43;8.25;;;;;;;9.84;85.33;101474.47;5080518;28;20063;-59
2022/04/21 00:09:36;;;;;;;12.63;8.07;;;;;;;9.83;84.93;101478.03;5080806;28;20043;-59
2022/04/21 00:12:02;;;;;;;11.95;7.80;;;;;;;9.83;84.71;101478.03;5079886;28;20112;-59
2022/04/21 00:14:27;;;;;;;13.73;8.23;;;;;;;9.83;84.83;101478.91;5046689;28;20040;-58
2022/04/21 00:16:54;;;;;;;11.85;7.82;;;;;;;9.79;84.52;101464.03;5063278;28;20497;-59
2022/04/21 00:19:20;;;;;;;12.38;7.82;;;;;;;9.76;84.87;101471.22;5080219;28;20475;-59
2022/04/21 00:24:29;;;;;;;15.80;8.27;;;;;;;9.65;84.96;101463.59;5080502;28;20066;-59
2022/04/21 00:26:54;;;;;;;14.15;7.80;;;;;;;9.59;85.32;101469.06;5079249;28;20055;-59
2022/04/21 00:29:20;;;;;;;12.02;7.80;;;;;;;9.55;85.72;101467.44;5079261;28;20040;-60
2022/04/21 00:31:45;;;;;;;13.32;8.27;;;;;;;9.53;85.45;101472.78;5054251;28;20048;-60
2022/04/21 00:34:10;;;;;;;13.43;8.50;;;;;;;9.50;85.99;101473.75;5039487;28;20043;-59
2022/04/21 00:36:36;;;;;;;13.25;8.20;;;;;;;9.45;86.43;101465.09;5039499;28;20037;-59
2022/04/21 00:39:02;;;;;;;12.07;8.05;;;;;;;9.43;86.27;101472.19;5039935;28;20369;-59
2022/04/21 00:41:27;;;;;;;12.02;8.18;;;;;;;9.41;86.49;101474.03;5039970;28;20034;-59
2022/04/21 00:43:52;;;;;;;13.52;8.00;;;;;;;9.42;86.29;101467.78;5038694;28;20036;-58
2022/04/21 00:46:19;;;;;;;11.88;7.90;;;;;;;9.39;86.57;101462.63;5039605;28;20064;-58
2022/04/21 00:48:46;;;;;;;13.90;8.32;;;;;;;9.35;86.73;101469.75;5039574;28;20112;-59
2022/04/21 00:51:12;;;;;;;16.05;8.18;;;;;;;9.37;86.85;101466.22;5039240;28;20484;-59
2022/04/21 00:53:39;;;;;;;11.35;7.82;;;;;;;9.35;86.50;101467.13;5053915;28;20079;-60
2022/04/21 00:56:05;;;;;;;12.73;8.00;;;;;;;9.32;86.25;101461.06;5043010;28;20672;-60
2022/04/21 00:58:31;;;;;;;15.77;7.65;;;;;;;9.30;86.57;101463.75;5037059;28;20043;-59
2022/04/21 01:00:57;;;;;;;13.57;7.82;;;;;;;9.25;86.77;101457.72;5038465;28;20078;-59
2022/04/21 01:03:22;;;;;;;11.38;7.82;;;;;;;9.18;87.46;101464.97;5039034;28;20037;-58
2022/04/21 01:05:49;;;;;;;11.32;7.50;;;;;;;9.16;87.31;101464.16;5053707;28;20032;-58
2022/04/21 01:08:14;;;;;;;12.75;8.40;;;;;;;9.14;87.92;101459.81;5037813;28;20040;-58
2022/04/21 01:10:42;;;;;;;12.57;7.80;;;;;;;9.11;87.49;101454.63;5038785;28;20099;-58
2022/04/21 01:13:10;;;;;;;12.68;8.15;;;;;;;9.06;88.02;101459.19;5038617;28;20052;-60
2022/04/21 01:15:37;;;;;;;11.93;7.93;;;;;;;9.07;87.57;101455.66;5039259;28;20034;-60
2022/04/21 01:18:04;;;;;;;12.20;7.93;;;;;;;9.04;88.04;101453.97;5038363;28;20051;-58
2022/04/21 01:20:29;;;;;;;11.25;7.65;;;;;;;9.04;87.53;101466.28;5039229;28;20033;-59
2022/04/21 01:22:55;;;;;;;12.65;7.63;;;;;;;9.06;87.69;101457.41;5038715;28;20029;-58
2022/04/21 01:25:21;;;;;;;13.45;7.20;;;;;;;9.04;87.77;101451.31;5038137;28;20029;-60
2022/04/21 01:27:48;;;;;;;12.38;8.02;;;;;;;9.04;87.56;101453.06;5038246;28;20052;-59
2022/04/21 01:30:13;;;;;;;10.82;7.22;;;;;;;9.01;87.01;101461.94;5043024;28;20119;-59
2022/04/21 01:32:44;;;;;;;12.23;7.47;;;;;;;8.97;87.21;101449.75;5078753;28;20047;-60
2022/04/21 01:35:11;;;;;;;11.77;7.55;;;;;;;8.94;87.34;101457.72;5078677;28;20783;-60
2022/04/21 01:43:06;;;;;;;13.07;7.68;;;;;;;8.93;86.60;101451.59;5078166;28;20039;-58
2022/04/21 01:45:32;;;;;;;11.02;7.28;;;;;;;8.93;87.23;101450.75;5060425;28;20032;-62
2022/04/21 01:47:57;;;;;;;12.27;7.38;;;;;;;8.91;86.62;101450.75;5060669;28;20073;-59
2022/04/21 01:50:24;;;;;;;12.40;7.88;;;;;;;8.91;86.82;101452.56;5078202;28;20462;-59
2022/04/21 01:52:49;;;;;;;12.88;7.82;;;;;;;8.87;87.01;101440.34;5059954;28;20042;-59
2022/04/21 01:55:15;;;;;;;10.95;7.57;;;;;;;8.84;86.82;101446.59;5078657;28;20032;-60
2022/04/21 01:57:40;;;;;;;14.82;7.70;;;;;;;8.83;87.24;101447.50;5078495;28;20032;-60
2022/04/21 02:00:06;;;;;;;11.85;7.40;;;;;;;8.84;87.29;101449.22;5060016;28;20067;-59
2022/04/21 02:02:32;;;;;;;12.00;7.75;;;;;;;8.80;87.10;101443.16;5077435;28;20032;-60
2022/04/21 02:04:58;;;;;;;12.07;7.68;;;;;;;8.77;87.75;101451.19;5078182;28;20115;-60
2022/04/21 02:07:24;;;;;;;11.15;7.80;;;;;;;8.72;88.06;101444.28;5076644;28;20107;-59
2022/04/21 02:09:49;;;;;;;13.00;8.32;;;;;;;8.67;88.09;101440.00;5077611;28;20395;-59
2022/04/21 02:12:15;;;;;;;11.48;7.47;;;;;;;8.64;88.57;101440.06;5076879;28;20020;-60
2022/04/21 02:14:40;;;;;;;11.77;7.82;;;;;;;8.64;88.43;101434.78;5077694;28;20032;-59
2022/04/21 02:17:06;;;;;;;11.68;8.07;;;;;;;8.65;88.34;101444.44;5077828;28;20035;-59
2022/04/21 02:19:32;;;;;;;12.05;7.68;;;;;;;8.69;88.18;101445.22;5077579;28;20668;-59
2022/04/21 02:21:58;;;;;;;11.15;7.40;;;;;;;8.65;88.25;101436.50;5077181;28;20039;-59
2022/04/21 02:24:23;;;;;;;11.63;7.43;;;;;;;8.61;88.17;101436.66;5059223;28;20024;-59
2022/04/21 02:26:48;;;;;;;11.15;7.22;;;;;;;8.60;88.26;101435.78;5043569;28;20118;-59
2022/04/21 02:29:14;;;;;;;13.07;7.85;;;;;;;8.57;88.23;101427.06;5077450;28;20179;-59
2022/04/21 02:31:39;;;;;;;15.15;8.18;;;;;;;8.53;88.97;101437.72;5042442;28;20063;-59
2022/04/21 02:34:04;;;;;;;10.40;7.25;;;;;;;8.52;88.80;101430.69;5058821;28;20551;-59
2022/04/21 02:36:30;;;;;;;12.25;8.32;;;;;;;8.46;89.12;101438.78;5059685;28;20463;-59
2022/04/21 02:38:55;;;;;;;12.88;7.65;;;;;;;8.46;88.48;101432.66;5058983;28;20059;-60
2022/04/21 02:41:21;;;;;;;11.95;7.38;;;;;;;8.43;88.83;101440.63;5059213;28;20036;-61
2022/04/21 02:43:46;;;;;;;11.55;7.15;;;;;;;8.41;89.32;101423.94;5076507;28;20371;-59
2022/04/21 02:46:13;;;;;;;13.30;7.80;;;;;;;8.40;89.06;101435.41;5077221;28;20035;-60
2022/04/21 02:48:39;;;;;;;11.30;8.00;;;;;;;8.38;89.01;101430.19;5076570;28;20036;-60
2022/04/21 02:51:04;;;;;;;13.27;7.90;;;;;;;8.34;89.05;101431.16;5077234;28;20034;-59
2022/04/21 02:59:17;;;;;;;11.98;7.75;;;;;;;8.18;89.79;101434.19;4999808;28;20493;-59
2022/04/21 03:01:43;;;;;;;10.95;7.40;;;;;;;8.11;90.41;101439.69;4999355;28;20054;-59
2022/04/21 03:04:08;;;;;;;13.57;7.65;;;;;;;8.06;90.41;101430.97;5035028;28;20098;-60
2022/04/21 03:06:34;;;;;;;13.45;7.93;;;;;;;8.06;90.50;101436.25;5064849;28;20032;-60
2022/04/21 03:08:59;;;;;;;15.35;8.95;;;;;;;8.00;90.99;101442.56;5076435;28;20111;-60
2022/04/21 03:11:25;;;;;;;12.23;7.90;;;;;;;7.95;90.81;101428.63;5064335;28;20032;-60
2022/04/21 03:13:50;;;;;;;13.30;8.60;;;;;;;7.93;91.15;101422.50;5081594;28;20024;-59
2022/04/21 03:16:15;;;;;;;13.38;8.10;;;;;;;7.93;91.31;101427.78;5092136;28;20039;-60
2022/04/21 03:18:41;;;;;;;12.30;7.85;;;;;;;7.88;91.59;101431.41;5106246;28;20509;-60
2022/04/21 03:24:21;;;;;;;12.25;7.28;;;;;;;7.88;90.67;101426.13;5008056;28;20039;-60
2022/04/21 03:26:52;;;;;;;13.80;7.47;;;;;;;7.91;90.90;101416.41;5066748;28;20090;-60
2022/04/21 03:29:18;;;;;;;10.90;7.80;;;;;;;7.88;91.31;101425.28;5076703;28;20453;-59
2022/04/21 03:31:43;;;;;;;14.32;7.75;;;;;;;7.88;91.08;101415.56;5076622;28;20115;-59
2022/04/21 03:34:13;;;;;;;12.75;7.93;;;;;;;7.86;91.15;101424.44;5075099;28;20042;-60
2022/04/21 03:36:44;;;;;;;12.32;7.65;;;;;;;7.84;91.30;101426.25;5076794;28;20038;-60
2022/04/21 03:39:09;;;;;;;12.95;7.88;;;;;;;7.80;91.45;101437.75;5077666;28;20028;-60
2022/04/21 03:41:35;;;;;;;14.07;8.10;;;;;;;7.77;91.65;101433.41;5076692;28;20031;-60
2022/04/21 03:44:00;;;;;;;12.18;7.35;;;;;;;7.74;91.36;101427.34;5063439;28;20165;-59
2022/04/21 03:46:26;;;;;;;13.32;7.65;;;;;;;7.70;91.82;101430.06;5058691;28;20032;-60
2022/04/21 03:48:51;;;;;;;12.82;7.32;;;;;;;7.67;91.96;101437.19;5058775;28;20056;-60
2022/04/21 03:51:16;;;;;;;12.07;7.65;;;;;;;7.69;91.94;101433.59;5076619;28;20138;-59
2022/04/21 03:53:42;;;;;;;11.38;7.35;;;;;;;7.68;91.87;101429.22;5076219;28;20149;-60
2022/04/21 03:56:07;;;;;;;13.00;7.93;;;;;;;7.70;91.79;101430.06;5075978;28;20085;-59
2022/04/21 03:58:33;;;;;;;10.95;7.55;;;;;;;7.69;91.91;101423.06;5076565;28;20055;-59
2022/04/21 04:00:58;;;;;;;18.48;8.00;;;;;;;7.65;91.88;101436.38;5057760;28;20059;-60
2022/04/21 04:03:24;;;;;;;12.13;7.70;;;;;;;7.61;91.97;101432.94;5058051;28;20063;-59
2022/04/21 04:05:49;;;;;;;13.88;7.55;;;;;;;7.63;92.05;101430.25;5077020;28;20125;-60
2022/04/21 04:11:00;;;;;;;12.98;7.55;;;;;;;7.63;91.84;101430.25;5080776;28;20040;-60
2022/04/21 04:13:26;;;;;;;12.63;7.82;;;;;;;7.58;91.87;101422.44;5061739;28;20057;-59
2022/04/21 04:15:52;;;;;;;12.32;7.22;;;;;;;7.60;92.28;101431.19;5079738;28;20032;-60
2022/04/21 04:18:21;;;;;;;13.68;7.38;;;;;;;7.62;92.00;101432.03;5079789;28;20491;-60
2022/04/21 04:20:47;;;;;;;12.55;7.43;;;;;;;7.60;92.02;101427.69;5080962;28;20034;-60
2022/04/21 04:23:20;;;;;;;12.85;7.78;;;;;;;7.58;92.05;101427.72;5079841;28;20031;-60
2022/04/21 04:25:46;;;;;;;14.60;7.65;;;;;;;7.55;92.56;101427.78;5079386;28;20072;-60
2022/04/21 04:28:11;;;;;;;14.35;7.38;;;;;;;7.51;93.04;101426.13;5079148;28;20533;-60
2022/04/21 04:30:40;;;;;;;11.63;7.22;;;;;;;7.52;93.24;101434.00;5061982;28;20059;-59
2022/04/21 04:33:06;;;;;;;13.00;7.40;;;;;;;7.54;92.88;101441.88;5079146;28;20032;-58
2022/04/21 04:35:32;;;;;;;11.45;7.47;;;;;;;7.57;92.55;101430.38;5079688;28;20032;-59
2022/04/21 04:37:58;;;;;;;11.82;7.38;;;;;;;7.57;92.19;101431.28;5079818;28;20031;-59
2022/04/21 04:40:24;;;;;;;10.90;7.38;;;;;;;7.65;91.81;101437.22;5061328;28;20143;-58
2022/04/21 04:42:50;;;;;;;12.10;7.75;;;;;;;7.74;91.47;101437.91;5079704;28;20410;-60
2022/04/21 04:47:59;;;;;;;11.60;7.10;;;;;;;7.81;90.68;101439.50;5079874;28;20092;-59
2022/04/21 04:50:25;;;;;;;12.25;7.10;;;;;;;7.83;90.55;101438.56;5079284;28;20539;-59
2022/04/21 04:52:56;;;;;;;12.43;7.18;;;;;;;7.83;90.55;101429.78;5079351;28;20060;-60
2022/04/21 04:55:23;;;;;;;10.02;6.80;;;;;;;7.88;90.34;101435.81;5078628;28;20123;-59
2022/04/21 04:57:49;;;;;;;11.52;7.28;;;;;;;7.95;90.05;101428.63;5079853;28;20029;-60
2022/04/21 05:00:15;;;;;;;11.75;7.07;;;;;;;7.97;90.02;101427.69;5084097;28;20028;-60
2022/04/21 05:02:41;;;;;;;14.57;7.95;;;;;;;7.94;90.44;101433.03;5081140;28;20394;-60
2022/04/21 05:05:07;;;;;;;12.57;7.72;;;;;;;7.95;90.17;101426.84;5058689;28;20109;-59
2022/04/21 05:07:32;;;;;;;11.30;7.35;;;;;;;7.93;90.38;101431.31;5076369;28;20065;-60
2022/04/21 05:09:58;;;;;;;13.20;7.40;;;;;;;7.99;89.33;101441.72;5087968;28;20169;-61
2022/04/21 05:12:24;;;;;;;13.88;7.50;;;;;;;7.99;89.34;101433.78;5094355;28;20031;-60
2022/04/21 05:14:49;;;;;;;12.07;7.63;;;;;;;8.02;89.65;101433.69;5074039;28;20028;-60
2022/04/21 05:17:14;;;;;;;14.65;7.25;;;;;;;8.13;89.74;101435.22;5088990;28;20024;-61
2022/04/21 05:19:40;;;;;;;9.95;6.63;;;;;;;8.18;88.48;101438.59;5093262;28;20505;-60
2022/04/21 05:22:07;;;;;;;11.52;7.50;;;;;;;8.24;88.87;101434.94;5075906;28;20038;-60
2022/04/21 05:24:33;;;;;;;12.98;7.70;;;;;;;8.25;88.92;101442.81;5083441;28;20019;-59
2022/04/21 05:26:59;;;;;;;11.82;7.45;;;;;;;8.29;88.41;101433.06;5112130;28;20145;-60
2022/04/21 05:32:11;;;;;;;11.10;6.78;;;;;;;8.44;87.42;101440.56;5110082;28;20058;-61
2022/04/21 05:34:36;;;;;;;12.95;7.05;;;;;;;8.45;86.96;101437.03;5106162;28;20504;-59
2022/04/21 05:37:02;;;;;;;11.52;7.38;;;;;;;8.47;87.10;101432.59;5110258;28;20031;-59
2022/04/21 05:39:29;;;;;;;12.65;7.28;;;;;;;8.47;86.58;101440.50;5080013;28;20032;-60
2022/04/21 05:41:57;;;;;;;10.02;6.70;;;;;;;8.43;86.54;101436.19;5082072;28;20031;-60
2022/04/21 05:44:23;;;;;;;9.93;6.85;;;;;;;8.48;86.29;101444.03;5087658;28;20027;-60
2022/04/21 05:46:49;;;;;;;12.02;7.05;;;;;;;8.47;86.86;101443.16;5095513;28;20032;-60
2022/04/21 05:49:16;;;;;;;10.02;6.75;;;;;;;8.55;86.87;101445.59;5075107;28;20051;-60
2022/04/21 05:51:42;;;;;;;10.20;6.97;;;;;;;8.56;86.79;101447.34;5073296;28;20054;-59
2022/04/21 05:54:08;;;;;;;11.63;6.50;;;;;;;8.63;86.61;101443.63;5076000;28;20555;-60
2022/04/21 05:56:35;;;;;;;10.70;6.72;;;;;;;8.66;86.28;101442.69;5076038;28;20073;-60
2022/04/21 05:59:00;;;;;;;10.25;6.80;;;;;;;8.77;85.89;101442.38;5060463;28;20035;-59
2022/04/21 06:01:26;;;;;;;11.30;6.85;;;;;;;8.84;84.94;101449.22;5108682;28;20352;-59
2022/04/21 06:03:52;;;;;;;11.93;6.63;;;;;;;8.88;85.50;101453.50;5093918;28;20500;-59
2022/04/21 06:06:18;;;;;;;13.05;6.72;;;;;;;8.94;84.83;101447.16;5098677;28;20560;-61
2022/04/21 06:08:44;;;;;;;14.10;6.60;;;;;;;9.01;84.66;101446.09;5102832;28;20470;-60
2022/04/21 06:11:09;;;;;;;11.95;7.07;;;;;;;9.17;84.69;101455.31;5111766;28;20032;-60
2022/04/21 06:13:36;;;;;;;12.18;6.30;;;;;;;9.27;84.21;101444.47;5111035;28;20038;-59
2022/04/21 06:16:01;;;;;;;11.23;6.35;;;;;;;9.34;83.10;101452.16;5074754;28;20031;-60
2022/04/21 06:18:27;;;;;;;10.63;6.18;;;;;;;9.48;82.81;101461.47;5094082;28;20031;-59
2022/04/21 06:20:53;;;;;;;10.10;6.43;;;;;;;9.56;83.14;101453.31;5092886;28;20099;-59
2022/04/21 06:23:20;;;;;;;10.50;6.47;;;;;;;9.65;83.11;101456.53;5071773;28;20035;-59
2022/04/21 06:25:45;;;;;;;10.50;6.63;;;;;;;9.69;83.02;101449.34;5089938;28;20122;-60
2022/04/21 06:28:12;;;;;;;11.15;6.68;;;;;;;9.69;81.35;101452.00;5092475;28;20494;-60
2022/04/21 06:30:38;;;;;;;10.45;6.30;;;;;;;9.69;82.04;101436.13;5104821;28;20047;-60
2022/04/21 06:33:03;;;;;;;10.13;6.30;;;;;;;9.73;81.37;101445.72;5093315;28;20084;-59
2022/04/21 06:35:29;;;;;;;10.73;6.68;;;;;;;9.81;82.40;101440.19;5103689;28;20024;-60
2022/04/21 06:37:56;;;;;;;10.68;6.22;;;;;;;9.81;80.65;101437.53;5084829;28;20092;-60
2022/04/21 06:40:22;;;;;;;9.23;6.40;;;;;;;9.83;80.65;101436.59;5092155;28;20035;-60
2022/04/21 06:42:47;;;;;;;8.95;5.78;;;;;;;9.88;80.31;101433.78;5092099;28;20031;-60
2022/04/21 06:48:04;;;;;;;9.85;6.05;;;;;;;9.97;80.00;101436.13;5084776;28;20081;-60
2022/04/21 06:50:34;;;;;;;12.43;5.93;;;;;;;10.00;79.99;101435.16;5092133;28;20059;-60
2022/04/21 06:53:01;;;;;;;13.23;6.40;;;;;;;10.01;79.71;101431.59;5091436;28;20020;-60
2022/04/21 06:55:27;;;;;;;9.32;5.85;;;;;;;10.02;79.69;101433.31;5057174;28;20084;-60
2022/04/21 06:57:52;;;;;;;8.63;5.93;;;;;;;10.03;79.26;101436.84;5091790;28;20023;-60
2022/04/21 07:00:18;;;;;;;9.05;5.78;;;;;;;10.06;79.29;101426.16;5091988;28;20059;-60
2022/04/21 07:02:43;;;;;;;11.88;6.65;;;;;;;10.10;79.22;101428.66;5071895;28;20079;-60
2022/04/21 07:05:13;;;;;;;9.07;6.18;;;;;;;10.20;79.19;101438.94;5074897;28;20103;-59
2022/04/21 07:07:40;;;;;;;13.70;6.13;;;;;;;10.29;79.03;101435.97;5091404;28;20116;-60
2022/04/21 07:10:07;;;;;;;9.68;5.60;;;;;;;10.32;77.70;101433.22;5075615;28;20031;-59
2022/04/21 07:12:34;;;;;;;10.25;5.72;;;;;;;10.40;78.36;101441.78;5106351;28;20031;-59
2022/04/21 07:15:02;;;;;;;12.07;6.20;;;;;;;10.47;77.50;101435.38;5108270;28;20023;-59
2022/04/21 07:17:28;;;;;;;9.73;6.82;;;;;;;10.50;77.82;101431.75;5091639;28;20028;-59
2022/04/21 07:19:54;;;;;;;10.50;5.90;;;;;;;10.48;77.31;101436.22;5073601;28;20016;-59
2022/04/21 07:22:21;;;;;;;9.30;5.55;;;;;;;10.55;77.74;101432.47;5091786;28;20085;-59
2022/04/21 07:24:47;;;;;;;9.93;5.70;;;;;;;10.67;78.20;101435.59;5056917;28;20059;-59
2022/04/21 07:27:13;;;;;;;8.50;5.78;;;;;;;10.78;76.87;101438.69;5091643;28;20035;-60
2022/04/21 07:29:38;;;;;;;10.13;6.13;;;;;;;10.91;76.86;101439.16;5091697;28;20565;-60
2022/04/21 07:32:05;;;;;;;9.77;6.15;;;;;;;11.03;76.52;101435.16;5091532;28;20115;-60
2022/04/21 07:34:30;;;;;;;10.55;5.80;;;;;;;11.05;75.61;101439.50;5091841;28;20035;-61
2022/04/21 07:36:56;;;;;;;10.27;5.97;;;;;;;11.10;76.44;101432.22;5091131;28;20028;-59
2022/04/21 07:39:22;;;;;;;8.75;6.18;;;;;;;11.17;76.10;101432.00;5091565;28;20157;-58
2022/04/21 07:41:47;;;;;;;8.77;5.53;;;;;;;11.31;75.96;101429.69;5093661;28;20107;-59
2022/04/21 07:44:12;;;;;;;11.25;6.05;;;;;;;11.43;76.00;101436.28;5077120;28;20021;-59
2022/04/21 07:46:38;;;;;;;9.80;5.60;;;;;;;11.51;74.34;101423.59;5077255;28;20032;-60
2022/04/21 07:51:47;;;;;;;10.27;5.82;;;;;;;11.64;73.14;101434.59;5095872;28;20044;-60
2022/04/21 07:54:12;;;;;;;11.60;5.43;;;;;;;11.85;72.26;101432.00;5110553;28;20028;-59
2022/04/21 07:56:38;;;;;;;9.40;5.25;;;;;;;11.95;70.42;101426.28;5096287;28;20039;-58
2022/04/21 07:59:03;;;;;;;6.40;4.60;;;;;;;12.03;70.58;101415.34;5095395;28;20482;-60
2022/04/21 08:01:29;;;;;;;10.82;5.00;;;;;;;12.08;68.66;101423.13;5110345;28;20505;-59
2022/04/21 08:03:54;;;;;;;6.90;4.90;;;;;;;12.18;70.54;101431.56;5095492;28;20028;-59
2022/04/21 08:06:19;;;;;;;8.15;4.95;;;;;;;12.32;70.49;101428.34;5096145;28;20077;-59
2022/04/21 08:08:45;;;;;;;10.00;5.20;;;;;;;12.38;69.51;101438.66;5107532;28;20032;-59
2022/04/21 08:11:10;;;;;;;6.78;4.90;;;;;;;12.40;68.69;101429.69;5096242;28;20020;-59
2022/04/21 08:13:36;;;;;;;8.00;5.03;;;;;;;12.52;69.15;101427.44;5095156;28;20036;-58
2022/04/21 08:16:01;;;;;;;8.73;5.05;;;;;;;12.71;70.16;101443.44;5095059;28;20134;-58
2022/04/21 08:18:27;;;;;;;9.02;5.25;;;;;;;12.81;68.63;101436.78;5096223;28;20499;-58
2022/04/21 08:20:57;;;;;;;9.60;5.20;;;;;;;12.82;69.48;101441.19;5097546;28;20442;-59
2022/04/21 08:23:23;;;;;;;7.93;5.37;;;;;;;12.88;69.75;101435.59;5086003;28;20030;-59
2022/04/21 08:34:02;;;;;;;8.35;4.70;;;;;;;13.26;64.69;101438.31;5096240;28;20124;-60
2022/04/21 08:36:27;;;;;;;6.70;4.43;;;;;;;13.41;65.00;101446.53;5086909;28;20066;-59
2022/04/21 08:38:52;;;;;;;7.47;4.53;;;;;;;13.46;63.50;101438.34;5103831;28;20039;-59
2022/04/21 08:41:18;;;;;;;8.73;4.60;;;;;;;13.52;65.00;101444.22;5094485;28;20024;-60
2022/04/21 08:43:46;;;;;;;8.95;5.05;;;;;;;13.50;65.36;101440.75;5095727;28;20043;-59
2022/04/21 08:46:19;;;;;;;6.88;4.40;;;;;;;13.63;65.45;101437.53;5094236;28;20020;-60
2022/04/21 08:48:47;;;;;;;7.97;5.10;;;;;;;13.81;65.63;101433.09;5102037;28;20016;-59
2022/04/21 08:51:13;;;;;;;9.23;4.85;;;;;;;13.95;63.31;101435.09;5094615;28;20032;-59
2022/04/21 08:53:40;;;;;;;8.20;4.50;;;;;;;14.08;62.68;101441.53;5082672;28;20089;-59
2022/04/21 08:56:06;;;;;;;6.13;4.35;;;;;;;14.14;63.47;101432.38;5114694;28;20023;-59
2022/04/21 08:58:32;;;;;;;7.07;4.13;;;;;;;14.19;62.30;101438.31;5099644;28;20020;-59
2022/04/21 09:00:58;;;;;;;6.85;4.30;;;;;;;14.35;61.09;101433.94;5095538;28;20123;-59
2022/04/21 09:03:24;;;;;;;34.97;5.68;;;;;;;14.42;61.53;101429.16;5099197;28;20023;-59
2022/04/21 09:05:49;;;;;;;8.15;3.72;;;;;;;14.52;60.64;101432.22;5111586;28;20084;-59
2022/04/21 09:08:19;;;;;;;7.32;3.83;;;;;;;14.74;61.13;101430.19;5107991;28;20463;-59
2022/04/21 09:10:45;;;;;;;9.90;4.65;;;;;;;15.00;60.15;101429.72;5107021;28;20047;-59
2022/04/21 09:13:10;;;;;;;7.80;4.32;;;;;;;15.16;61.31;101433.25;5082546;28;20024;-60
2022/04/21 09:15:43;;;;;;;8.07;4.68;;;;;;;15.63;60.61;101430.72;5093405;28;20107;-59
2022/04/21 09:18:10;;;;;;;6.32;4.75;;;;;;;16.67;58.13;101420.19;5092947;28;20024;-60
2022/04/21 09:20:36;;;;;;;5.47;3.80;;;;;;;18.22;49.04;101424.56;5086519;28;20475;-60
2022/04/21 09:23:06;;;;;;;7.55;4.03;;;;;;;19.34;43.52;101422.22;5088013;28;20032;-59
2022/04/21 09:25:52;;;;;;;6.93;4.35;;;;;;;20.14;40.23;101418.97;5094241;28;20027;-60
2022/04/21 09:28:24;;;;;;;6.95;4.22;;;;;;;20.57;39.18;101423.72;5082767;28;20046;-59
2022/04/21 09:30:51;;;;;;;5.57;3.88;;;;;;;20.76;38.59;101415.09;5074622;28;20075;-59
2022/04/21 09:33:26;;;;;;;6.40;4.05;;;;;;;20.71;38.76;101421.84;5073329;28;20028;-59
2022/04/21 09:35:52;;;;;;;8.32;3.92;;;;;;;20.92;36.36;101422.84;5068558;28;20028;-59
2022/04/21 09:38:18;;;;;;;5.10;3.67;;;;;;;21.08;36.54;101413.53;5092267;28;20422;-60
2022/04/21 09:40:44;;;;;;;8.80;3.70;;;;;;;21.89;34.57;101411.41;5096750;28;20032;-59
2022/04/21 09:43:10;;;;;;;6.43;3.80;;;;;;;22.17;35.54;101411.75;5090358;28;20027;-59
2022/04/21 09:48:28;;;;;;;8.07;3.53;;;;;;;21.65;33.53;101406.22;5094354;28;20316;-58
2022/04/21 09:50:55;;;;;;;8.18;3.78;;;;;;;21.87;33.81;101407.13;5093248;28;20099;-60
2022/04/21 09:53:23;;;;;;;5.72;3.53;;;;;;;22.42;32.83;101410.53;5093342;28;20063;-60
2022/04/21 09:55:51;;;;;;;7.50;4.20;;;;;;;21.88;33.24;101400.72;5093510;28;20038;-60
2022/04/21 09:58:17;;;;;;;6.75;3.88;;;;;;;21.76;34.71;101400.81;5094368;28;20059;-60
2022/04/21 10:00:44;;;;;;;5.68;3.42;;;;;;;22.58;31.57;101388.50;5110735;28;20059;-59
2022/04/21 10:03:10;;;;;;;5.93;3.63;;;;;;;22.78;31.72;101393.13;5102933;28;20044;-58
2022/04/21 10:05:39;;;;;;;6.07;3.78;;;;;;;22.78;31.18;101395.81;5091883;28;20475;-58
2022/04/21 10:08:07;;;;;;;5.35;3.60;;;;;;;22.82;30.77;101390.00;5096237;28;20051;-58
2022/04/21 10:10:34;;;;;;;4.70;3.30;;;;;;;22.81;29.03;101393.69;5079033;28;20055;-59
2022/04/21 10:13:01;;;;;;;5.28;3.40;;;;;;;22.56;29.23;101392.31;5080702;28;20047;-60
2022/04/21 10:15:29;;;;;;;4.15;3.20;;;;;;;22.11;30.65;101388.03;5051902;28;20051;-59
2022/04/21 10:17:54;;;;;;;6.15;3.67;;;;;;;21.98;31.58;101377.41;5060442;28;20016;-59
2022/04/21 10:20:30;;;;;;;14.90;3.90;;;;;;;22.47;30.76;101377.75;5091971;28;20071;-60
2022/04/21 10:22:56;;;;;;;6.28;3.30;;;;;;;23.26;28.22;101381.63;5092837;28;20016;-59
2022/04/21 10:25:39;;;;;;;5.10;3.20;;;;;;;23.69;28.07;101388.53;5092372;28;20039;-59
2022/04/21 10:28:38;;;;;;;7.03;3.20;;;;;;;22.15;29.42;101372.41;5096717;28;20043;-60
2022/04/21 10:31:27;;;;;;;5.47;2.92;;;;;;;22.96;27.42;101371.72;5091905;28;21773;-58
2022/04/21 10:34:03;;;;;;;6.28;2.97;;;;;;;22.64;28.45;101370.03;5092656;28;20035;-59
2022/04/21 10:36:36;;;;;;;4.97;2.75;;;;;;;23.08;26.45;101373.31;5088200;28;20084;-59
2022/04/21 10:39:31;;;;;;;3.70;2.88;;;;;;;22.80;26.25;101369.53;5091955;28;20058;-59
2022/04/21 10:42:07;;;;;;;7.07;2.70;;;;;;;22.40;26.48;101358.56;5091736;28;20122;-60
2022/04/21 10:44:42;;;;;;;4.28;2.55;;;;;;;22.73;27.55;101361.13;5092005;28;20028;-60
2022/04/21 10:47:31;;;;;;;6.70;3.10;;;;;;;22.86;26.11;101353.63;5077845;28;20047;-59
2022/04/21 10:50:15;;;;;;;4.93;2.70;;;;;;;22.34;26.59;101356.38;5092335;28;20084;-59
2022/04/21 10:57:55;;;;;;;7.72;3.25;;;;;;;22.27;26.83;101347.06;5085652;28;20555;-59
2022/04/21 11:00:33;;;;;;;5.40;2.75;;;;;;;22.71;27.12;101346.91;5091989;28;20043;-59
2022/04/21 11:03:07;;;;;;;6.07;2.78;;;;;;;22.72;27.75;101349.47;5082986;28;20036;-59
2022/04/21 11:05:35;;;;;;;3.38;2.70;;;;;;;23.52;26.28;101348.69;5077651;28;20809;-60
2022/04/21 11:08:03;;;;;;;6.20;2.80;;;;;;;23.63;25.35;101340.47;5075366;28;20027;-60
2022/04/21 11:10:49;;;;;;;5.18;3.00;;;;;;;23.71;25.89;101346.00;5058581;28;20549;-59
2022/04/21 11:13:18;;;;;;;5.40;3.60;;;;;;;23.48;26.16;101334.59;5057350;28;20044;-59
2022/04/21 11:15:53;;;;;;;4.38;2.90;;;;;;;23.66;25.52;101332.03;5075459;28;20024;-60
2022/04/21 11:18:20;;;;;;;5.40;3.00;;;;;;;23.95;26.06;101335.75;5076313;28;20491;-58
2022/04/21 11:20:47;;;;;;;6.32;2.63;;;;;;;22.72;25.66;101324.31;5080653;28;20039;-58
2022/04/21 11:23:45;;;;;;;5.93;2.70;;;;;;;23.19;25.42;101327.31;5091046;28;20036;-59
2022/04/21 11:26:11;;;;;;;4.13;2.10;;;;;;;23.63;24.77;101323.34;5091058;28;20108;-59
2022/04/21 11:28:44;;;;;;;4.13;2.00;;;;;;;22.98;24.54;101318.41;5091290;28;20036;-59
2022/04/21 11:31:10;;;;;;;6.20;2.05;;;;;;;23.11;23.69;101323.56;5090524;28;20111;-60
2022/04/21 11:33:39;;;;;;;3.20;2.25;;;;;;;22.64;23.13;101314.19;5088843;28;20031;-60
2022/04/21 11:36:07;;;;;;;1.77;1.67;;;;;;;23.01;24.43;101320.84;5112403;28;20020;-58
2022/04/21 11:38:36;;;;;;;3.22;2.00;;;;;;;23.56;24.12;101325.78;5108237;28;20107;-59
2022/04/21 11:41:07;;;;;;;4.47;2.00;;;;;;;23.65;22.83;101315.97;5076701;28;20118;-58
2022/04/21 11:43:35;;;;;;;3.00;1.80;;;;;;;23.63;23.86;101315.25;5090765;28;20029;-60
2022/04/21 11:46:05;;;;;;;1.80;1.60;;;;;;;23.95;23.94;101314.09;5071666;28;20036;-58
2022/04/21 11:48:40;;;;;;;4.10;1.80;;;;;;;23.73;22.50;101316.97;5087104;28;20028;-59
2022/04/21 11:51:06;;;;;;;3.63;1.90;;;;;;;23.21;24.61;101301.00;5071301;28;20059;-59
2022/04/21 11:53:36;;;;;;;4.28;2.00;;;;;;;23.47;22.80;101291.50;5056944;28;20024;-59
2022/04/21 11:56:03;;;;;;;4.10;1.90;;;;;;;22.48;23.98;101311.13;5091570;28;20032;-58
2022/04/21 11:58:34;;;;;;;5.72;2.20;;;;;;;23.31;26.04;101302.88;5091573;28;20035;-59
2022/04/21 12:06:41;;;;;;;3.08;2.13;;;;;;;24.08;21.63;101293.03;5091260;28;20071;-59
2022/04/21 12:09:12;;;;;;;5.20;2.40;;;;;;;23.96;24.12;101294.19;5072930;28;20024;-59
2022/04/21 12:11:39;;;;;;;4.05;1.90;;;;;;;23.49;23.35;101294.91;5092254;28;20368;-60
2022/04/21 12:14:05;;;;;;;5.03;2.00;;;;;;;23.94;22.62;101288.94;5073615;28;20395;-58
2022/04/21 12:16:38;;;;;;;5.13;2.33;;;;;;;23.69;23.29;101288.47;5091551;28;20024;-59
2022/04/21 12:19:13;;;;;;;6.70;2.33;;;;;;;22.79;24.40;101282.28;5092209;28;20084;-59